logo
Search for airport 
image banner adimage banner adimage banner ad
image banner ad

LZRU - Ruzomberok

Located in Ruzomberok, Slovakia

ICAO - , IATA -

Data provided by Airmate  

General information

Coordinates: N49°5'8" E19°22'7"
Elevation is 1615 feet MSL.
Magnetic variation is 5.43° East
Rated:
View ratings:
[VIEW]
View others Airports in Žilina

Operational data

Special qualification required
Current time UTC:
Current local time:
Weather at : LZSL - Sliac ( 53 km )
TAF: TAF LZSL 170430Z 1706/1718 VRB02KT 9999 BKN010 BKN035 BECMG 1709/1711 34006KT BKN035 TEMPO 1711/1718 35010KT SCT040 BKN100
View NOTAMs / SUP AIP / TFR affecting this airport [VIEW]
Communications frequencies: [VIEW]

Runways:

RWY identifierQFULength (ft)Width (ft)SurfaceLDA (ft)
06L3084131GRASS
24R3084131GRASS
06R3084131GRASS
24L3084131GRASS

Airport contact information

Address: Ruzomberok Slovakia

Satellite view of LZRU